Heber Springs, AR (72543)

11:51 PM CST on January 19, 2017 (GMT -0600)
Heber Springs WX | | Change Station

Elev 541 ft 35.52 °N, 92.03 °W | Updated 12 seconds ago

Overcast
Overcast
50.5 °F
Feels Like 50.5 °F
N
0.0
Wind Variable Wind from South

Today
High -- | Low -- °F
--% Chance of Precip.
Yesterday
High -- | Low -- °F
Precip. -- in
Pressure 29.69 in
Visibility 4.0 miles
Clouds Mostly Cloudy 1200 ft
Overcast 2200 ft
Dew Point 49 °F
Humidity 98%
Rainfall 0.17 in
Snow Depth Not available.
7:15 AM 5:22 PM
Waning Gibbous, 47% visible
METAR KCCA 200535Z AUTO 00000KT 4SM BR BKN012 OVC022 11/10 A2969 RMK AO2
Pressure 29.69 in
Visibility 4.0 miles
Clouds Mostly Cloudy 1200 ft
Overcast 2200 ft
Dew Point 49 °F
Humidity 98%
Rainfall 0.17 in
Snow Depth Not available.
7:15 AM 5:22 PM
Waning Gibbous, 47% visible
METAR KCCA 200535Z AUTO 00000KT 4SM BR BKN012 OVC022 11/10 A2969 RMK AO2

Get Your Daily Forecast Email!

Thanks for signing up!

Be on the lookout for a verification email in your inbox.

You'll start receiving the daily forecast at 8 AM.

×

10-Day Weather Forecast

Almanac

Astronomy

Jan. 19, 2017 Rise Set
Actual Time
Civil Twilight
Nautical Twilight
Astronomical Twilight
Moon
Length of Visible Light
Length of Day
Tomorrow will be .
, % of the Moon is Illuminated

Today's Extremes

State Highs State Lows

Community

WunderPhotos

Upload Photos

1,962,540 photos uploaded!

WunderBlog® & News

Nearby

Air Quality

  Air Quality AQ Index Pollutant
Not available.

Snow Depth

Station Depth Elevation

Earthquake Activity

City Distance Mag. Time & Date
Minimum magnitude displayed is 2.5.

Coastal Water Temperatures

Place Temperature

Stations

Nearby Weather Stations

Station Location Temp. Windchill Dew Point Humidity Wind Precip. Elev Updated Type
                   

Watches & Warnings

There are currently no watches in effect.